Time;durP1;ratioP1;P1;durP2;ratioP2;P2;SDS_P1;SDS_P2;PMS_P1;PMS_P2;Temp;Humidity;BMP_temperature;BMP_pressure;BME280_temperature;BME280_humidity;BME280_pressure;Samples;Min_cycle;Max_cycle;Signal;HPM_P1;HPM_P2
2021/08/30 00:02:18;;;;;;;14.15;7.00;;;16.70;94.50;;;;;;4994577;28;20034;-80
2021/08/30 00:04:44;;;;;;;13.43;7.20;;;16.70;94.60;;;;;;4977168;28;20030;-80
2021/08/30 00:07:10;;;;;;;14.63;8.02;;;16.70;94.60;;;;;;4993337;28;20110;-79
2021/08/30 00:09:35;;;;;;;12.73;7.38;;;16.70;94.70;;;;;;4993119;28;20026;-79
2021/08/30 00:12:01;;;;;;;15.50;8.25;;;16.60;94.70;;;;;;4992448;28;20471;-80
2021/08/30 00:14:27;;;;;;;16.17;7.38;;;16.60;94.70;;;;;;4993225;28;20034;-79
2021/08/30 00:16:52;;;;;;;12.90;7.63;;;16.60;94.80;;;;;;4992994;28;20124;-79
2021/08/30 00:19:18;;;;;;;12.38;7.22;;;16.60;94.80;;;;;;4994307;28;20077;-79
2021/08/30 00:21:43;;;;;;;13.07;7.68;;;16.60;94.90;;;;;;4994160;28;20379;-77
2021/08/30 00:24:09;;;;;;;14.10;7.88;;;16.60;94.90;;;;;;4976877;28;20029;-78
2021/08/30 00:26:35;;;;;;;16.05;8.57;;;16.50;94.90;;;;;;4994156;28;20037;-76
2021/08/30 00:29:01;;;;;;;17.15;8.55;;;16.60;94.90;;;;;;4992817;28;20030;-77
2021/08/30 00:31:26;;;;;;;13.10;7.75;;;16.50;95.00;;;;;;4992790;28;20030;-76
2021/08/30 00:33:53;;;;;;;13.88;7.82;;;16.50;95.00;;;;;;4992771;28;20034;-77
2021/08/30 00:36:19;;;;;;;15.57;7.65;;;16.50;95.00;;;;;;4960544;28;20026;-80
2021/08/30 00:38:44;;;;;;;16.45;9.23;;;16.50;95.10;;;;;;4993994;28;20030;-79
2021/08/30 00:41:10;;;;;;;16.15;8.32;;;16.50;95.20;;;;;;4994155;28;20105;-77
2021/08/30 00:43:36;;;;;;;12.63;7.53;;;16.50;95.20;;;;;;4992882;28;20479;-77
2021/08/30 00:46:05;;;;;;;13.73;7.55;;;16.50;95.20;;;;;;4992721;28;20026;-79
2021/08/30 00:48:31;;;;;;;14.00;8.05;;;16.50;95.20;;;;;;4993824;28;20026;-79
2021/08/30 00:50:59;;;;;;;14.02;8.60;;;16.50;95.40;;;;;;4976534;28;20038;-80
2021/08/30 00:53:24;;;;;;;15.88;8.32;;;16.50;95.30;;;;;;4993828;28;20113;-78
2021/08/30 00:55:50;;;;;;;13.30;7.10;;;16.50;95.40;;;;;;4993741;28;20084;-80
2021/08/30 00:58:16;;;;;;;13.23;7.70;;;16.50;95.40;;;;;;4992367;28;20554;-79
2021/08/30 01:00:42;;;;;;;15.75;8.48;;;16.50;95.50;;;;;;4993726;28;20093;-79
2021/08/30 01:03:09;;;;;;;13.68;8.25;;;16.50;95.60;;;;;;4992549;28;20022;-79
2021/08/30 01:05:38;;;;;;;15.13;7.78;;;16.50;95.60;;;;;;4992513;28;20029;-80
2021/08/30 01:08:11;;;;;;;15.75;7.78;;;16.50;95.60;;;;;;4992406;28;20440;-77
2021/08/30 01:11:00;;;;;;;16.48;8.82;;;16.50;95.60;;;;;;4993809;28;20036;-79
2021/08/30 01:13:28;;;;;;;15.32;8.13;;;16.60;95.70;;;;;;4993564;28;20113;-75
2021/08/30 01:15:55;;;;;;;14.02;8.48;;;16.60;95.70;;;;;;4993654;28;20085;-75
2021/08/30 01:18:23;;;;;;;13.50;8.32;;;16.60;95.70;;;;;;4992017;28;20046;-76
2021/08/30 01:20:59;;;;;;;14.48;9.15;;;16.60;95.70;;;;;;4992266;28;20018;-75
2021/08/30 01:23:27;;;;;;;16.10;8.18;;;16.60;95.70;;;;;;4994261;28;20026;-75
2021/08/30 01:25:54;;;;;;;11.25;8.00;;;16.70;95.70;;;;;;4996089;28;20038;-76
2021/08/30 01:28:26;;;;;;;13.70;8.25;;;16.70;95.70;;;;;;4997634;28;20033;-75
2021/08/30 01:30:55;;;;;;;16.60;8.13;;;16.70;95.70;;;;;;4996039;28;20053;-76
2021/08/30 01:33:22;;;;;;;12.52;7.50;;;16.70;95.70;;;;;;4997248;28;20525;-76
2021/08/30 01:35:48;;;;;;;11.55;7.32;;;16.80;95.70;;;;;;4996006;28;20042;-76
2021/08/30 01:38:14;;;;;;;15.93;7.88;;;16.80;95.70;;;;;;4997098;28;20080;-76
2021/08/30 01:40:41;;;;;;;13.43;7.95;;;16.80;95.70;;;;;;4995825;28;20509;-76
2021/08/30 01:43:09;;;;;;;14.27;7.72;;;16.80;95.60;;;;;;4997117;28;20549;-76
2021/08/30 01:45:35;;;;;;;14.98;7.55;;;16.80;95.60;;;;;;4995821;28;20493;-76
2021/08/30 01:48:04;;;;;;;13.30;7.72;;;16.80;95.60;;;;;;4979632;28;20037;-76
2021/08/30 01:50:30;;;;;;;13.13;7.53;;;16.90;95.60;;;;;;4995735;28;20035;-77
2021/08/30 01:53:00;;;;;;;13.63;7.45;;;16.80;95.50;;;;;;4979630;28;20034;-76
2021/08/30 02:00:44;;;;;;;13.55;7.60;;;16.90;95.50;;;;;;4996484;28;20372;-76
2021/08/30 02:03:10;;;;;;;14.38;7.57;;;16.90;95.40;;;;;;4996674;28;20379;-77
2021/08/30 02:05:36;;;;;;;14.02;7.60;;;16.90;95.40;;;;;;4995302;28;20026;-80
2021/08/30 02:08:02;;;;;;;12.73;7.90;;;16.90;95.40;;;;;;4979326;28;20038;-78
2021/08/30 02:10:28;;;;;;;13.23;7.57;;;16.90;95.30;;;;;;4979010;28;20474;-80
2021/08/30 02:12:53;;;;;;;13.15;8.07;;;16.90;95.30;;;;;;4995468;28;20038;-79
2021/08/30 02:15:19;;;;;;;12.68;8.15;;;16.90;95.30;;;;;;4963259;28;20482;-80
2021/08/30 02:17:50;;;;;;;13.77;7.68;;;16.90;95.30;;;;;;4978807;28;20464;-77
2021/08/30 02:20:21;;;;;;;12.27;8.13;;;16.90;95.30;;;;;;4995129;28;20022;-78
2021/08/30 02:22:47;;;;;;;13.60;8.25;;;16.90;95.30;;;;;;4996458;28;20022;-78
2021/08/30 02:25:18;;;;;;;12.15;7.68;;;16.90;95.20;;;;;;4996520;28;20085;-79
2021/08/30 02:27:47;;;;;;;12.90;8.32;;;16.90;95.20;;;;;;4995100;28;20483;-80
2021/08/30 02:30:17;;;;;;;17.02;8.23;;;16.90;95.10;;;;;;4996442;28;20116;-77
2021/08/30 02:32:45;;;;;;;12.98;8.43;;;17.00;95.20;;;;;;4996104;28;20022;-79
2021/08/30 02:35:14;;;;;;;12.63;7.82;;;17.00;95.40;;;;;;4994012;28;20034;-79
2021/08/30 02:37:41;;;;;;;12.85;8.18;;;16.90;95.10;;;;;;4995079;28;20156;-78
2021/08/30 02:40:09;;;;;;;12.48;7.85;;;17.00;95.10;;;;;;4994888;28;20018;-79
2021/08/30 02:42:36;;;;;;;12.18;8.13;;;17.00;95.10;;;;;;4994987;28;20033;-79
2021/08/30 02:45:04;;;;;;;17.17;8.98;;;17.00;95.10;;;;;;4994822;28;20037;-79
2021/08/30 02:47:34;;;;;;;13.23;8.07;;;17.00;95.10;;;;;;4994695;28;20018;-79
2021/08/30 02:50:02;;;;;;;14.02;8.32;;;17.00;95.10;;;;;;4995953;28;20022;-79
2021/08/30 02:52:29;;;;;;;13.93;9.00;;;17.00;95.00;;;;;;4995940;28;20483;-79
2021/08/30 02:54:56;;;;;;;15.15;8.70;;;17.00;95.00;;;;;;4994503;28;20014;-79
2021/08/30 02:57:23;;;;;;;14.52;7.38;;;17.00;95.00;;;;;;4995650;28;20085;-78
2021/08/30 02:59:51;;;;;;;14.70;8.13;;;17.00;95.00;;;;;;4962278;28;20038;-78
2021/08/30 03:02:20;;;;;;;13.77;8.73;;;17.00;95.10;;;;;;4995784;28;20028;-77
2021/08/30 03:04:46;;;;;;;14.93;9.05;;;17.00;95.00;;;;;;4978208;28;20033;-78
2021/08/30 03:07:13;;;;;;;17.38;9.05;;;16.90;95.00;;;;;;4995703;28;20026;-79
2021/08/30 03:09:39;;;;;;;13.32;8.70;;;16.90;95.00;;;;;;4978122;28;20033;-79
2021/08/30 03:12:07;;;;;;;17.27;8.80;;;16.90;95.00;;;;;;4994140;28;20026;-80
2021/08/30 03:14:36;;;;;;;15.40;9.25;;;16.90;95.00;;;;;;4995346;28;20023;-78
2021/08/30 03:17:06;;;;;;;18.05;9.30;;;16.90;95.00;;;;;;4978091;28;20038;-76
2021/08/30 03:19:32;;;;;;;19.75;10.63;;;16.90;95.00;;;;;;4993873;28;20414;-75
2021/08/30 03:22:00;;;;;;;17.85;9.82;;;16.90;95.10;;;;;;4994143;28;20506;-76
2021/08/30 03:24:30;;;;;;;16.85;9.38;;;16.90;95.00;;;;;;4995143;28;20032;-76
2021/08/30 03:26:57;;;;;;;14.73;9.77;;;16.90;95.00;;;;;;4995184;28;20116;-76
2021/08/30 03:29:23;;;;;;;17.45;9.40;;;16.90;95.10;;;;;;4993843;28;20034;-76
2021/08/30 03:31:50;;;;;;;17.60;10.20;;;16.90;95.10;;;;;;4977917;28;20023;-76
2021/08/30 03:34:18;;;;;;;17.15;10.57;;;16.90;95.10;;;;;;4995038;28;20570;-76
2021/08/30 03:36:45;;;;;;;19.98;10.57;;;16.90;95.10;;;;;;5010052;28;20109;-76
2021/08/30 03:39:12;;;;;;;14.52;9.73;;;16.90;95.10;;;;;;4993531;28;20027;-76
2021/08/30 03:41:38;;;;;;;15.45;9.65;;;16.90;95.10;;;;;;4994875;28;20023;-75
2021/08/30 03:44:05;;;;;;;17.17;9.90;;;16.90;95.10;;;;;;4995034;28;20026;-76
2021/08/30 03:46:31;;;;;;;16.98;9.80;;;16.90;95.10;;;;;;4993427;28;20113;-76
2021/08/30 03:48:58;;;;;;;17.38;10.30;;;16.90;95.10;;;;;;4993653;28;20426;-76
2021/08/30 03:51:25;;;;;;;19.67;10.85;;;16.90;95.10;;;;;;4993491;28;20030;-76
2021/08/30 03:53:52;;;;;;;13.98;9.95;;;16.90;95.20;;;;;;5009822;28;20394;-76
2021/08/30 03:56:18;;;;;;;20.52;10.65;;;16.90;95.50;;;;;;4993395;28;20360;-76
2021/08/30 03:58:46;;;;;;;17.92;10.30;;;16.90;95.20;;;;;;5009597;28;20041;-76
2021/08/30 04:01:15;;;;;;;18.52;10.98;;;16.90;95.20;;;;;;4994473;28;20022;-77
2021/08/30 04:03:43;;;;;;;18.30;10.45;;;16.90;95.20;;;;;;4994580;28;20157;-76
2021/08/30 04:06:11;;;;;;;18.38;10.65;;;16.90;95.20;;;;;;4994606;28;20026;-75
2021/08/30 04:08:38;;;;;;;19.63;10.55;;;16.90;95.20;;;;;;4994356;28;20050;-76
2021/08/30 04:11:05;;;;;;;18.30;11.07;;;16.90;95.20;;;;;;4993112;28;20117;-76
2021/08/30 04:13:31;;;;;;;18.27;11.35;;;16.90;95.20;;;;;;4993114;28;20033;-76
2021/08/30 04:15:57;;;;;;;17.02;11.98;;;16.90;95.20;;;;;;4993183;28;20497;-76
2021/08/30 04:18:23;;;;;;;18.88;11.15;;;16.90;95.30;;;;;;5009176;28;20058;-75
2021/08/30 04:20:49;;;;;;;20.27;10.43;;;16.90;95.30;;;;;;5009374;28;20360;-76
2021/08/30 04:23:15;;;;;;;16.88;11.05;;;16.90;95.30;;;;;;4992810;28;20053;-75
2021/08/30 04:25:40;;;;;;;17.83;10.00;;;16.90;95.30;;;;;;4992792;28;20451;-77
2021/08/30 04:28:06;;;;;;;20.83;11.30;;;17.00;95.40;;;;;;4992747;28;20030;-76
2021/08/30 04:30:32;;;;;;;18.38;12.18;;;16.90;95.40;;;;;;5009139;28;20042;-76
2021/08/30 04:32:58;;;;;;;19.33;11.30;;;16.90;95.30;;;;;;4994017;28;20018;-76
2021/08/30 04:35:23;;;;;;;16.88;10.20;;;17.00;95.40;;;;;;4994058;28;20058;-76
2021/08/30 04:37:49;;;;;;;22.98;11.00;;;17.00;95.40;;;;;;4992656;28;20460;-75
2021/08/30 04:40:15;;;;;;;22.67;12.50;;;17.00;95.40;;;;;;4992939;28;20379;-76
2021/08/30 04:42:41;;;;;;;26.58;12.98;;;17.00;95.40;;;;;;4993915;28;20500;-76
2021/08/30 04:45:07;;;;;;;23.38;13.00;;;17.00;95.40;;;;;;4992656;28;20467;-76
2021/08/30 04:47:34;;;;;;;18.25;12.05;;;17.00;95.50;;;;;;4992444;28;20073;-76
2021/08/30 04:50:00;;;;;;;18.83;11.85;;;17.00;95.50;;;;;;4993893;28;20092;-77
2021/08/30 04:52:25;;;;;;;22.48;13.02;;;17.00;95.50;;;;;;4992526;28;20129;-75
2021/08/30 04:54:51;;;;;;;21.23;12.82;;;17.00;95.50;;;;;;4993814;28;20030;-76
2021/08/30 04:57:16;;;;;;;25.08;13.20;;;17.00;95.50;;;;;;4992685;28;20391;-76
2021/08/30 04:59:42;;;;;;;20.25;12.55;;;17.00;95.50;;;;;;4996401;28;20073;-77
2021/08/30 05:02:08;;;;;;;20.83;13.38;;;17.10;95.50;;;;;;4996476;28;20049;-76
2021/08/30 05:04:34;;;;;;;17.77;10.90;;;17.10;95.50;;;;;;5012811;28;20475;-76
2021/08/30 05:07:00;;;;;;;26.17;13.15;;;17.10;95.60;;;;;;4997831;28;20042;-76
2021/08/30 05:09:26;;;;;;;29.65;13.77;;;17.10;95.60;;;;;;4997724;28;20034;-77
2021/08/30 05:11:51;;;;;;;19.65;13.40;;;17.10;95.60;;;;;;4980239;28;20375;-76
2021/08/30 05:14:17;;;;;;;21.95;13.25;;;17.10;95.60;;;;;;4996681;28;20122;-77
2021/08/30 05:16:42;;;;;;;23.67;13.00;;;17.20;95.60;;;;;;5012638;28;20426;-76
2021/08/30 05:19:08;;;;;;;21.08;13.48;;;17.10;95.60;;;;;;4996254;28;20130;-76
2021/08/30 05:21:34;;;;;;;25.48;14.27;;;17.10;95.50;;;;;;5012598;28;20022;-77
2021/08/30 05:24:00;;;;;;;22.25;12.68;;;17.10;95.60;;;;;;5012475;28;20031;-77
2021/08/30 05:26:26;;;;;;;23.13;12.88;;;17.20;95.60;;;;;;4996167;28;20022;-76
2021/08/30 05:28:52;;;;;;;21.35;12.63;;;17.20;95.60;;;;;;4979945;28;20026;-77
2021/08/30 05:31:17;;;;;;;23.20;14.27;;;17.20;95.60;;;;;;4996021;28;20030;-76
2021/08/30 05:33:43;;;;;;;23.48;13.77;;;17.30;95.70;;;;;;4979772;28;20030;-77
2021/08/30 05:36:08;;;;;;;24.27;13.52;;;17.30;95.70;;;;;;4997174;28;20042;-77
2021/08/30 05:38:34;;;;;;;24.65;14.40;;;17.30;95.70;;;;;;4995895;28;20030;-77
2021/08/30 05:41:00;;;;;;;19.15;11.63;;;17.30;95.70;;;;;;5012332;28;20433;-77
2021/08/30 05:43:26;;;;;;;24.55;14.27;;;17.40;95.70;;;;;;4995850;28;20022;-77
2021/08/30 05:45:51;;;;;;;24.02;13.55;;;17.40;95.70;;;;;;4995675;28;20109;-76
2021/08/30 05:48:17;;;;;;;20.95;13.52;;;17.40;95.60;;;;;;4995852;28;20030;-77
2021/08/30 05:50:42;;;;;;;22.75;12.40;;;17.40;95.60;;;;;;4995731;28;20037;-76
2021/08/30 05:53:08;;;;;;;23.83;12.93;;;17.50;95.60;;;;;;4996976;28;20034;-77
2021/08/30 05:55:34;;;;;;;25.27;14.57;;;17.50;95.50;;;;;;4995668;28;20030;-77
2021/08/30 05:57:59;;;;;;;23.48;12.63;;;17.50;95.50;;;;;;5011724;28;20372;-77
2021/08/30 06:00:25;;;;;;;25.45;13.23;;;17.50;95.50;;;;;;4995439;28;20022;-76
2021/08/30 06:02:51;;;;;;;24.73;13.27;;;17.50;95.50;;;;;;4996784;28;20422;-77
2021/08/30 06:05:16;;;;;;;23.08;12.85;;;17.60;95.50;;;;;;4979180;28;20162;-76
2021/08/30 06:07:42;;;;;;;20.52;12.70;;;17.60;95.50;;;;;;4995551;28;20045;-79
2021/08/30 06:10:09;;;;;;;22.10;13.60;;;17.60;95.50;;;;;;4996560;28;20045;-78
2021/08/30 06:12:35;;;;;;;24.55;12.70;;;17.60;95.50;;;;;;4996453;28;20035;-79
2021/08/30 06:15:01;;;;;;;22.98;13.27;;;17.70;95.50;;;;;;5011705;28;20177;-79
2021/08/30 06:17:26;;;;;;;19.88;13.07;;;17.70;95.70;;;;;;5011560;28;20115;-79
2021/08/30 06:19:52;;;;;;;21.13;12.38;;;17.70;95.40;;;;;;5011324;28;20062;-79
2021/08/30 06:22:17;;;;;;;20.88;12.48;;;17.80;95.40;;;;;;4995135;28;20033;-79
2021/08/30 06:24:47;;;;;;;20.75;12.25;;;17.80;95.40;;;;;;5011496;28;20034;-79
2021/08/30 06:27:17;;;;;;;20.33;12.90;;;17.80;95.30;;;;;;5010991;28;20031;-79
2021/08/30 06:30:07;;;;;;;18.45;12.85;;;17.80;95.30;;;;;;5012088;28;20025;-80
2021/08/30 06:32:33;;;;;;;20.13;12.38;;;17.90;95.30;;;;;;5051716;28;20063;-80
2021/08/30 06:34:59;;;;;;;19.80;12.73;;;17.90;95.20;;;;;;5051571;28;20493;-80
2021/08/30 06:37:24;;;;;;;24.80;13.43;;;17.90;95.20;;;;;;5052141;28;20409;-79
2021/08/30 06:39:50;;;;;;;20.35;12.40;;;18.00;95.20;;;;;;5036642;28;20159;-79
2021/08/30 06:42:15;;;;;;;20.67;11.43;;;18.00;95.20;;;;;;5053706;28;20517;-78
2021/08/30 06:44:41;;;;;;;30.63;14.25;;;18.10;95.20;;;;;;5053431;28;20037;-77
2021/08/30 06:47:07;;;;;;;20.08;12.13;;;18.10;95.20;;;;;;5036798;28;20041;-79
2021/08/30 06:49:32;;;;;;;23.50;13.55;;;18.20;95.40;;;;;;5036553;28;20441;-79
2021/08/30 06:51:58;;;;;;;22.75;12.90;;;18.20;95.00;;;;;;5053728;28;20456;-79
2021/08/30 06:54:24;;;;;;;22.08;12.68;;;18.30;95.00;;;;;;5053326;28;20417;-78
2021/08/30 06:56:49;;;;;;;21.35;12.65;;;18.40;94.90;;;;;;5053407;28;20041;-78
2021/08/30 06:59:15;;;;;;;19.92;11.73;;;18.50;94.90;;;;;;5053064;28;20033;-78
2021/08/30 07:01:40;;;;;;;21.48;12.93;;;18.50;94.70;;;;;;5034550;28;20088;-76
2021/08/30 07:04:06;;;;;;;21.13;12.32;;;18.50;94.60;;;;;;5014688;28;20387;-78
2021/08/30 07:06:32;;;;;;;20.13;12.00;;;18.50;94.50;;;;;;5014781;28;20057;-78
2021/08/30 07:09:01;;;;;;;24.83;11.90;;;18.60;94.50;;;;;;5016234;28;20064;-79
2021/08/30 07:11:27;;;;;;;20.35;12.48;;;18.60;94.40;;;;;;5017340;28;20113;-77
2021/08/30 07:13:52;;;;;;;20.55;11.57;;;18.60;94.40;;;;;;5017201;28;20084;-78
2021/08/30 07:16:18;;;;;;;19.55;11.40;;;18.60;94.60;;;;;;5015477;28;20025;-78
2021/08/30 07:18:43;;;;;;;20.23;11.07;;;18.60;94.30;;;;;;5031417;28;20390;-77
2021/08/30 07:21:09;;;;;;;21.23;11.63;;;18.60;94.20;;;;;;4998227;28;20462;-78
2021/08/30 07:23:36;;;;;;;18.90;12.15;;;18.70;94.20;;;;;;5031284;28;20045;-78
2021/08/30 07:26:02;;;;;;;19.52;11.95;;;18.70;94.20;;;;;;4998973;28;20037;-79
2021/08/30 07:28:28;;;;;;;20.08;12.35;;;18.70;94.10;;;;;;5031344;28;20100;-77
2021/08/30 07:30:53;;;;;;;23.00;11.93;;;18.80;94.10;;;;;;5015519;28;20351;-77
2021/08/30 07:33:19;;;;;;;15.40;11.07;;;18.80;94.10;;;;;;5015824;28;20125;-77
2021/08/30 07:35:45;;;;;;;18.00;12.13;;;18.80;94.00;;;;;;5016018;28;20108;-78
2021/08/30 07:38:10;;;;;;;19.15;11.85;;;18.80;94.00;;;;;;5015281;28;20029;-78
2021/08/30 07:40:36;;;;;;;19.92;11.43;;;18.80;93.90;;;;;;5031244;28;20057;-78
2021/08/30 07:43:02;;;;;;;17.73;10.77;;;18.90;93.80;;;;;;4998582;28;20801;-78
2021/08/30 07:45:27;;;;;;;18.65;10.48;;;18.90;93.80;;;;;;5027920;28;20034;-78
2021/08/30 07:47:53;;;;;;;15.95;10.93;;;19.00;93.80;;;;;;5014107;28;20105;-78
2021/08/30 07:50:21;;;;;;;21.40;11.45;;;19.10;93.80;;;;;;4998030;28;20071;-78
2021/08/30 07:52:47;;;;;;;18.45;11.30;;;19.10;93.70;;;;;;5013774;28;20026;-77
2021/08/30 07:55:14;;;;;;;18.08;10.60;;;19.20;93.60;;;;;;5029818;28;20061;-79
2021/08/30 07:57:40;;;;;;;18.70;11.20;;;19.20;93.50;;;;;;5012749;28;20064;-78
2021/08/30 08:00:06;;;;;;;17.67;11.20;;;19.30;93.40;;;;;;5014995;28;20022;-79
2021/08/30 08:02:31;;;;;;;19.02;11.77;;;19.30;93.30;;;;;;5015814;28;20176;-76
2021/08/30 08:04:57;;;;;;;20.58;10.98;;;19.30;93.30;;;;;;5015721;28;20057;-77
2021/08/30 08:07:23;;;;;;;19.15;12.50;;;19.30;93.20;;;;;;5013331;28;20117;-76
2021/08/30 08:09:48;;;;;;;17.27;11.63;;;19.30;93.20;;;;;;5013159;28;20033;-78
2021/08/30 08:12:14;;;;;;;22.27;12.18;;;19.30;93.20;;;;;;5014298;28;20018;-78
2021/08/30 08:14:40;;;;;;;20.88;11.63;;;19.40;93.10;;;;;;5014093;28;20042;-77
2021/08/30 08:17:05;;;;;;;16.42;11.20;;;19.40;93.00;;;;;;4980598;28;20100;-78
2021/08/30 08:19:31;;;;;;;20.77;12.10;;;19.40;92.90;;;;;;4996756;28;20034;-78
2021/08/30 08:21:57;;;;;;;20.13;12.10;;;19.40;92.70;;;;;;5014211;28;20022;-75
2021/08/30 08:24:24;;;;;;;17.52;11.70;;;19.50;92.70;;;;;;5013202;28;20030;-75
2021/08/30 08:26:51;;;;;;;15.65;10.55;;;19.40;92.60;;;;;;5012909;28;20026;-75
2021/08/30 08:29:16;;;;;;;16.10;11.93;;;19.40;92.40;;;;;;5013145;28;20542;-75
2021/08/30 08:31:42;;;;;;;23.90;11.20;;;19.40;92.40;;;;;;5013771;28;20108;-75
2021/08/30 08:34:08;;;;;;;17.52;12.05;;;19.50;92.40;;;;;;4996167;28;20058;-75
2021/08/30 08:36:33;;;;;;;15.85;10.50;;;19.50;92.50;;;;;;5012704;28;20116;-80
2021/08/30 08:38:59;;;;;;;17.88;11.20;;;19.50;92.40;;;;;;5014312;28;20355;-80
2021/08/30 08:41:28;;;;;;;18.30;11.90;;;19.60;92.40;;;;;;5013873;28;20034;-78
2021/08/30 08:43:56;;;;;;;14.63;10.50;;;19.70;92.20;;;;;;5013769;28;20423;-77
2021/08/30 08:46:23;;;;;;;15.27;9.82;;;19.70;92.20;;;;;;5012273;28;20374;-78
2021/08/30 08:48:49;;;;;;;14.85;10.20;;;19.80;92.20;;;;;;5013579;28;20034;-79
2021/08/30 08:51:16;;;;;;;13.90;10.00;;;19.90;92.10;;;;;;5014447;28;20026;-80
2021/08/30 08:53:43;;;;;;;15.43;9.70;;;20.10;91.80;;;;;;5012612;28;20026;-78
2021/08/30 08:56:13;;;;;;;15.30;9.70;;;20.30;91.80;;;;;;5013621;28;20061;-78
2021/08/30 08:58:40;;;;;;;18.05;8.32;;;20.40;91.70;;;;;;5012546;28;20490;-77
2021/08/30 09:01:11;;;;;;;12.85;8.25;;;20.50;91.50;;;;;;5013169;28;20463;-80
2021/08/30 09:03:48;;;;;;;14.07;8.85;;;20.60;91.10;;;;;;5013896;28;20026;-78
2021/08/30 09:06:28;;;;;;;13.55;8.48;;;20.70;90.40;;;;;;5013917;28;20030;-77
2021/08/30 09:09:10;;;;;;;12.13;7.97;;;20.70;90.30;;;;;;5012496;28;20022;-77
2021/08/30 09:11:39;;;;;;;11.27;7.78;;;20.80;90.10;;;;;;5013563;28;20030;-79
2021/08/30 09:14:16;;;;;;;13.63;8.00;;;20.90;90.00;;;;;;5013859;28;20108;-77
2021/08/30 09:16:42;;;;;;;12.02;7.22;;;21.00;89.70;;;;;;5013144;28;20037;-80
2021/08/30 09:19:09;;;;;;;10.57;7.60;;;21.10;89.40;;;;;;4995669;28;20385;-78
2021/08/30 09:21:44;;;;;;;12.27;7.85;;;21.20;88.50;;;;;;5013816;28;20113;-78
2021/08/30 09:24:22;;;;;;;11.32;6.65;;;21.30;88.20;;;;;;5012493;28;20060;-77
2021/08/30 09:26:55;;;;;;;10.13;6.95;;;21.40;88.10;;;;;;5012008;28;20025;-78
2021/08/30 09:29:23;;;;;;;8.75;5.88;;;21.40;87.30;;;;;;5012172;28;20068;-79
2021/08/30 09:32:16;;;;;;;10.35;6.68;;;21.30;86.20;;;;;;5013276;28;20060;-81
2021/08/30 09:34:44;;;;;;;10.60;7.55;;;21.30;84.60;;;;;;5011186;28;20494;-79
2021/08/30 09:37:19;;;;;;;10.57;6.97;;;21.20;84.40;;;;;;5013552;28;20034;-77
2021/08/30 09:39:46;;;;;;;10.27;6.57;;;21.20;84.40;;;;;;5013454;28;20030;-78
2021/08/30 09:42:12;;;;;;;9.93;6.03;;;21.30;84.50;;;;;;5012331;28;20117;-79
2021/08/30 09:44:37;;;;;;;9.82;6.30;;;21.50;84.10;;;;;;4998186;28;20063;-78
2021/08/30 09:47:14;;;;;;;11.75;6.60;;;21.50;84.00;;;;;;4983103;28;20505;-79
2021/08/30 09:49:41;;;;;;;9.05;5.72;;;21.60;83.20;;;;;;5015601;28;20437;-78
2021/08/30 09:52:08;;;;;;;10.15;6.35;;;21.70;82.60;;;;;;5017021;28;20092;-77
2021/08/30 09:54:34;;;;;;;10.30;6.55;;;21.80;81.40;;;;;;5016838;28;20034;-79
2021/08/30 09:57:00;;;;;;;10.35;6.75;;;21.80;81.10;;;;;;5015308;28;20033;-77
2021/08/30 09:59:30;;;;;;;12.80;6.88;;;21.90;81.30;;;;;;5016673;28;20061;-77
2021/08/30 10:01:59;;;;;;;11.07;6.15;;;22.00;80.80;;;;;;5015605;28;20117;-77
2021/08/30 10:04:26;;;;;;;10.20;6.22;;;22.10;79.70;;;;;;5016911;28;20033;-77
2021/08/30 10:06:53;;;;;;;10.90;6.75;;;22.10;79.10;;;;;;5017210;28;20451;-80
2021/08/30 10:09:20;;;;;;;10.45;6.28;;;22.10;78.60;;;;;;5015130;28;20033;-76
2021/08/30 10:11:48;;;;;;;11.00;6.95;;;22.00;77.70;;;;;;5016644;28;20026;-78
2021/08/30 10:14:19;;;;;;;10.77;6.10;;;21.90;77.90;;;;;;5015160;28;20048;-79
2021/08/30 10:16:46;;;;;;;9.65;5.88;;;21.90;78.20;;;;;;5014822;28;20029;-80
2021/08/30 10:19:12;;;;;;;9.63;6.00;;;21.90;78.10;;;;;;5014848;28;20038;-76
2021/08/30 10:21:46;;;;;;;9.93;6.00;;;22.10;78.50;;;;;;5015196;28;20896;-77
2021/08/30 10:24:17;;;;;;;7.25;4.93;;;22.40;78.20;;;;;;5015281;28;20037;-78
2021/08/30 10:26:45;;;;;;;9.35;5.47;;;22.90;78.50;;;;;;5015037;28;20045;-79
2021/08/30 10:29:11;;;;;;;9.52;5.47;;;23.40;78.10;;;;;;5014772;28;20108;-79
2021/08/30 10:31:49;;;;;;;9.38;5.28;;;23.90;77.60;;;;;;5014909;28;20029;-77
2021/08/30 10:34:28;;;;;;;8.95;4.82;;;24.20;75.40;;;;;;5016064;28;20429;-77
2021/08/30 10:36:55;;;;;;;9.68;4.60;;;24.30;72.40;;;;;;5016083;28;20045;-78
2021/08/30 10:39:22;;;;;;;7.32;5.00;;;24.30;72.20;;;;;;5016037;28;20034;-78
2021/08/30 10:41:49;;;;;;;7.28;4.80;;;24.30;70.60;;;;;;5015958;28;20034;-78
2021/08/30 10:44:20;;;;;;;8.23;5.50;;;24.30;70.70;;;;;;5015546;28;20014;-78
2021/08/30 10:46:50;;;;;;;7.72;4.72;;;24.40;70.40;;;;;;5016047;28;20037;-79
2021/08/30 10:49:19;;;;;;;8.50;5.22;;;24.30;70.30;;;;;;5015335;28;20113;-75
2021/08/30 10:51:46;;;;;;;8.07;4.93;;;24.20;70.20;;;;;;5014093;28;20033;-76
2021/08/30 10:54:16;;;;;;;9.38;5.15;;;24.10;69.90;;;;;;5015379;28;20080;-79
2021/08/30 10:56:53;;;;;;;8.10;5.18;;;24.10;69.90;;;;;;5013844;28;20041;-78
2021/08/30 10:59:26;;;;;;;6.93;4.78;;;24.20;70.30;;;;;;5014064;28;20026;-78
2021/08/30 11:01:58;;;;;;;7.05;4.32;;;24.70;70.00;;;;;;5015346;28;20030;-79
2021/08/30 11:04:33;;;;;;;6.82;4.25;;;25.00;69.10;;;;;;5015826;28;20033;-78
2021/08/30 11:06:59;;;;;;;5.80;3.65;;;25.20;68.60;;;;;;5015894;28;20037;-80
2021/08/30 11:09:26;;;;;;;7.38;3.83;;;25.40;68.50;;;;;;5014338;28;20115;-79
2021/08/30 11:11:52;;;;;;;6.95;4.45;;;25.60;68.10;;;;;;5015202;28;20041;-79
2021/08/30 11:14:18;;;;;;;10.68;5.13;;;25.50;65.80;;;;;;5014150;28;20113;-79
2021/08/30 11:16:51;;;;;;;7.47;4.47;;;25.40;65.00;;;;;;5015169;28;20107;-80
2021/08/30 11:19:17;;;;;;;6.43;4.38;;;25.30;64.90;;;;;;4998876;28;20034;-79
2021/08/30 11:21:55;;;;;;;9.10;5.07;;;25.10;64.30;;;;;;5014601;28;20157;-77
2021/08/30 11:24:44;;;;;;;6.40;3.65;;;24.90;64.30;;;;;;5013548;28;20125;-79
2021/08/30 11:27:16;;;;;;;7.15;4.50;;;25.00;64.70;;;;;;5015121;28;20466;-78
2021/08/30 11:29:51;;;;;;;7.97;4.20;;;25.40;65.10;;;;;;5015629;28;20038;-78
2021/08/30 11:32:19;;;;;;;7.30;4.40;;;25.60;64.40;;;;;;5014980;28;20033;-78
2021/08/30 11:34:46;;;;;;;6.85;3.65;;;25.60;63.80;;;;;;5014360;28;20395;-78
2021/08/30 11:37:15;;;;;;;6.03;4.28;;;25.80;63.50;;;;;;5014761;28;20097;-78
2021/08/30 11:39:43;;;;;;;8.32;4.25;;;25.90;63.40;;;;;;5014688;28;20464;-78
2021/08/30 11:42:11;;;;;;;5.65;3.63;;;26.00;62.70;;;;;;5014668;28;20028;-77
2021/08/30 11:44:39;;;;;;;9.27;3.92;;;26.00;61.80;;;;;;5014906;28;20493;-78
2021/08/30 11:47:09;;;;;;;7.15;4.85;;;25.90;61.30;;;;;;5013597;28;20026;-78
2021/08/30 11:49:52;;;;;;;7.95;4.30;;;25.90;61.20;;;;;;5014739;28;20055;-79
2021/08/30 11:52:19;;;;;;;;;;;25.90;61.30;;;;;;5015859;28;20030;-77
2021/08/30 11:55:18;;;;;;;5.40;3.85;;;25.90;61.20;;;;;;5014673;28;19992;-80
2021/08/30 11:57:49;;;;;;;7.78;3.97;;;25.90;60.60;;;;;;5013420;28;20434;-78
2021/08/30 12:00:22;;;;;;;7.00;3.67;;;25.80;60.60;;;;;;5013469;28;20092;-78
2021/08/30 12:02:51;;;;;;;6.97;3.97;;;25.70;60.60;;;;;;5013229;28;20033;-79
2021/08/30 12:05:18;;;;;;;5.55;3.80;;;25.50;60.10;;;;;;5013353;28;20032;-80
2021/08/30 12:07:44;;;;;;;7.55;3.80;;;25.40;60.30;;;;;;5014702;28;20022;-80
2021/08/30 12:10:12;;;;;;;5.07;3.40;;;25.30;60.40;;;;;;5013277;28;20442;-78
2021/08/30 12:15:31;;;;;;;11.88;3.60;;;25.30;61.40;;;;;;5014526;28;20045;-78
2021/08/30 12:17:59;;;;;;;6.50;4.05;;;25.40;61.80;;;;;;5014063;28;20133;-78
2021/08/30 12:20:45;;;;;;;4.25;2.85;;;25.40;61.80;;;;;;5013056;28;20036;-79
2021/08/30 12:23:18;;;;;;;5.18;3.45;;;25.50;61.60;;;;;;5012120;28;20044;-79
2021/08/30 12:25:46;;;;;;;6.82;3.05;;;25.60;61.40;;;;;;5011765;28;20037;-79
2021/08/30 12:28:14;;;;;;;6.78;2.80;;;25.70;61.50;;;;;;5014545;28;20022;-79
2021/08/30 12:30:45;;;;;;;6.68;3.03;;;25.90;61.60;;;;;;5012905;28;21560;-79
2021/08/30 12:33:21;;;;;;;5.22;3.08;;;26.10;61.60;;;;;;5013305;28;20038;-79
2021/08/30 12:35:54;;;;;;;4.70;2.97;;;26.50;61.40;;;;;;5012919;28;20053;-80
2021/08/30 12:38:30;;;;;;;4.22;2.92;;;26.90;61.10;;;;;;5013950;28;20096;-79
2021/08/30 12:40:59;;;;;;;5.03;2.65;;;27.40;60.30;;;;;;5013136;28;20034;-79
2021/08/30 12:43:26;;;;;;;4.40;3.05;;;27.80;60.40;;;;;;5012721;28;20030;-79
2021/08/30 12:45:53;;;;;;;5.05;2.97;;;28.10;59.70;;;;;;5013008;28;20041;-80
2021/08/30 12:48:19;;;;;;;3.97;2.15;;;28.20;59.00;;;;;;5012593;28;20567;-79